Time;durP1;ratioP1;P1;durP2;ratioP2;P2;SDS_P1;SDS_P2;PMS_P1;PMS_P2;Temp;Humidity;BMP_temperature;BMP_pressure;BME280_temperature;BME280_humidity;BME280_pressure;Samples;Min_cycle;Max_cycle;Signal;HPM_P1;HPM_P2
2022/12/18 00:03:18;;;;;;;46.92;23.75;;;;;;;-8.31;89.76;101484.16;10423189;28;20088;-71
2022/12/18 00:08:20;;;;;;;44.63;23.83;;;;;;;-8.32;89.40;101486.56;10422951;28;20061;-71
2022/12/18 00:13:22;;;;;;;45.95;22.63;;;;;;;-8.18;86.92;101502.03;10406319;28;20490;-73
2022/12/18 00:18:24;;;;;;;35.38;22.10;;;;;;;-8.31;86.45;101506.22;10406963;28;20162;-71
2022/12/18 00:23:26;;;;;;;51.13;23.45;;;;;;;-8.46;87.01;101506.09;10422581;28;20080;-71
2022/12/18 00:28:27;;;;;;;48.25;22.42;;;;;;;-8.60;87.96;101499.16;10421505;28;20430;-70
2022/12/18 00:33:30;;;;;;;46.67;22.55;;;;;;;-8.76;89.48;101507.44;10404670;28;20041;-70
2022/12/18 00:38:33;;;;;;;45.38;22.95;;;;;;;-8.82;90.34;101512.97;10422555;28;20487;-70
2022/12/18 00:43:36;;;;;;;43.47;22.02;;;;;;;-8.82;90.47;101520.63;10403847;28;20137;-71
2022/12/18 00:48:38;;;;;;;50.03;25.10;;;;;;;-8.85;90.24;101529.72;10403176;28;20107;-70
2022/12/18 00:53:41;;;;;;;53.03;26.33;;;;;;;-8.91;90.39;101523.41;10420854;28;20046;-69
2022/12/18 00:58:42;;;;;;;44.40;24.13;;;;;;;-8.90;90.39;101520.13;10422703;28;20450;-70
2022/12/18 01:03:47;;;;;;;35.45;22.42;;;;;;;-8.67;90.32;101524.25;10420777;28;20091;-70
2022/12/18 01:08:50;;;;;;;52.25;24.60;;;;;;;-8.63;86.78;101533.00;10401751;28;20503;-70
2022/12/18 01:13:53;;;;;;;49.13;22.38;;;;;;;-8.85;86.91;101543.38;10402414;28;20499;-70
2022/12/18 01:18:56;;;;;;;40.17;21.33;;;;;;;-8.80;86.16;101543.69;10401465;28;20136;-70
2022/12/18 01:23:58;;;;;;;42.85;21.20;;;;;;;-8.96;86.61;101537.50;10422026;28;20049;-71
2022/12/18 01:28:59;;;;;;;31.25;20.33;;;;;;;-8.95;87.17;101546.03;10419826;28;20048;-70
2022/12/18 01:34:04;;;;;;;38.95;21.00;;;;;;;-8.96;88.01;101547.69;10401301;28;20054;-70
2022/12/18 01:39:13;;;;;;;40.67;21.98;;;;;;;-8.95;87.43;101546.91;10403117;28;20042;-70
2022/12/18 01:44:47;;;;;;;34.25;20.60;;;;;;;-9.09;87.48;101534.88;10403019;28;20049;-70
2022/12/18 01:49:49;;;;;;;31.42;19.55;;;;;;;-9.08;88.52;101536.63;10400447;28;20439;-70
2022/12/18 01:54:52;;;;;;;48.58;22.60;;;;;;;-9.14;87.98;101543.84;10419014;28;20399;-70
2022/12/18 02:00:03;;;;;;;34.58;21.52;;;;;;;-9.16;88.10;101553.06;10417646;28;20041;-70
2022/12/18 02:05:33;;;;;;;31.70;19.10;;;;;;;-9.26;87.19;101558.25;10402234;28;20045;-71
2022/12/18 02:10:44;;;;;;;37.90;20.48;;;;;;;-9.29;86.81;101561.47;10399327;28;20096;-69
2022/12/18 02:16:16;;;;;;;29.85;18.90;;;;;;;-9.13;83.87;101540.53;10418491;28;20042;-70
2022/12/18 02:21:32;;;;;;;23.00;18.38;;;;;;;-9.36;85.23;101545.66;10399669;28;20053;-70
2022/12/18 02:26:40;;;;;;;31.63;17.97;;;;;;;-9.32;85.33;101552.72;10414899;23;20046;-72
2022/12/18 02:31:48;;;;;;;35.28;19.35;;;;;;;-9.46;85.68;101567.00;10401388;28;20045;-71
2022/12/18 02:36:53;;;;;;;33.42;19.17;;;;;;;-9.56;86.46;101573.09;10419066;28;20052;-72
2022/12/18 02:41:55;;;;;;;29.85;17.42;;;;;;;-9.25;85.98;101567.66;10402388;28;20045;-72
2022/12/18 02:46:58;;;;;;;28.73;18.58;;;;;;;-9.41;84.37;101569.13;10401058;28;20128;-72
2022/12/18 02:52:19;;;;;;;26.38;17.08;;;;;;;-9.58;84.71;101571.22;10418328;28;20049;-73
2022/12/18 02:57:56;;;;;;;24.75;16.67;;;;;;;-9.81;86.41;101574.59;10418291;28;20049;-71
2022/12/18 03:03:10;;;;;;;25.02;16.58;;;;;;;-9.77;87.16;101569.84;10402272;28;20104;-72
2022/12/18 03:08:15;;;;;;;20.33;16.58;;;;;;;-9.73;86.84;101571.84;10393313;28;20041;-72
2022/12/18 03:13:31;;;;;;;20.80;15.45;;;;;;;-9.51;84.13;101576.88;10409591;28;20050;-73
2022/12/18 03:18:43;;;;;;;21.85;15.65;;;;;;;-9.75;82.49;101573.38;10409386;28;20576;-71
2022/12/18 03:23:49;;;;;;;26.83;15.70;;;;;;;-10.00;84.66;101578.34;10411065;28;20049;-71
2022/12/18 03:29:04;;;;;;;21.05;15.63;;;;;;;-10.12;85.97;101584.16;10408108;28;20140;-71
2022/12/18 03:34:21;;;;;;;20.08;14.07;;;;;;;-10.01;85.50;101578.19;10408474;28;20088;-72
2022/12/18 03:39:23;;;;;;;16.45;13.77;;;;;;;-9.97;85.35;101587.81;10409976;28;20418;-72
2022/12/18 03:44:40;;;;;;;15.45;13.18;;;;;;;-10.09;85.66;101581.81;10407875;28;20053;-72
2022/12/18 03:49:57;;;;;;;17.40;12.43;;;;;;;-10.08;86.24;101578.53;10424900;28;20061;-72
2022/12/18 03:55:07;;;;;;;20.88;12.57;;;;;;;-10.00;85.76;101590.16;10408496;28;20046;-71
2022/12/18 04:00:14;;;;;;;17.83;12.57;;;;;;;-9.98;85.55;101592.03;10426688;28;20048;-73
2022/12/18 04:05:33;;;;;;;18.13;12.23;;;;;;;-9.92;85.19;101591.59;10408555;28;20050;-71
2022/12/18 04:10:36;;;;;;;12.60;10.32;;;;;;;-9.82;82.13;101601.72;10406933;28;20057;-73
2022/12/18 04:15:39;;;;;;;14.05;11.55;;;;;;;-10.13;83.70;101606.16;10406499;28;20498;-72
2022/12/18 04:20:45;;;;;;;16.90;10.98;;;;;;;-10.07;83.92;101610.81;10406503;28;20144;-72
2022/12/18 04:25:47;;;;;;;12.52;10.45;;;;;;;-10.26;85.00;101611.09;10406332;28;20041;-72
2022/12/18 04:30:56;;;;;;;10.82;9.73;;;;;;;-10.10;85.22;101605.47;10406035;28;20100;-73
2022/12/18 04:35:58;;;;;;;11.43;9.50;;;;;;;-10.06;83.66;101605.81;10405891;28;20056;-73
2022/12/18 04:41:00;;;;;;;12.10;9.25;;;;;;;-10.29;84.61;101614.28;10405645;28;20053;-72
2022/12/18 04:46:05;;;;;;;13.80;8.50;;;;;;;-10.24;84.93;101617.19;10405658;28;20073;-71
2022/12/18 04:51:07;;;;;;;11.27;8.52;;;;;;;-10.19;84.57;101626.88;10424166;28;20055;-72
2022/12/18 04:56:11;;;;;;;10.07;8.10;;;;;;;-10.03;83.50;101621.31;10389168;28;20048;-72
2022/12/18 05:01:17;;;;;;;14.30;8.70;;;;;;;-10.12;83.55;101612.13;10423337;28;20415;-73
2022/12/18 05:06:19;;;;;;;9.18;7.68;;;;;;;-10.41;84.66;101623.50;10389115;28;20045;-72
2022/12/18 05:11:21;;;;;;;10.43;8.55;;;;;;;-10.42;85.22;101615.00;10424414;28;20045;-72
2022/12/18 05:16:23;;;;;;;12.88;8.52;;;;;;;-10.21;84.11;101610.66;10425470;28;20064;-72
2022/12/18 05:21:25;;;;;;;10.38;7.50;;;;;;;-10.43;84.38;101612.34;10406036;28;20072;-72
2022/12/18 05:26:26;;;;;;;16.15;7.85;;;;;;;-10.42;84.54;101617.53;10389401;28;20490;-72
2022/12/18 05:31:28;;;;;;;10.40;7.80;;;;;;;-10.42;84.23;101616.66;10402961;28;20549;-72
2022/12/18 05:36:36;;;;;;;14.35;7.68;;;;;;;-10.47;85.21;101615.41;10421906;28;20045;-71
2022/12/18 05:41:38;;;;;;;11.07;7.60;;;;;;;-10.52;85.96;101609.97;10403198;28;20049;-71
2022/12/18 05:46:40;;;;;;;9.90;7.38;;;;;;;-10.58;85.73;101614.59;10420270;28;20045;-72
2022/12/18 05:51:41;;;;;;;10.95;8.65;;;;;;;-10.55;86.44;101621.56;10403350;28;20048;-72
2022/12/18 05:56:43;;;;;;;10.02;8.77;;;;;;;-10.52;86.74;101626.88;10420868;28;20042;-71
2022/12/18 06:01:49;;;;;;;10.10;8.00;;;;;;;-10.45;86.43;101636.75;10404105;28;20045;-72
2022/12/18 06:06:51;;;;;;;11.75;8.18;;;;;;;-10.50;86.18;101641.47;10421420;28;20041;-73
2022/12/18 06:11:53;;;;;;;11.95;7.45;;;;;;;-10.55;86.16;101644.44;10420695;28;20116;-72
2022/12/18 06:16:55;;;;;;;10.57;7.32;;;;;;;-10.51;85.40;101643.91;10404324;28;20043;-73
2022/12/18 06:21:58;;;;;;;9.88;7.07;;;;;;;-10.59;85.02;101656.00;10421508;28;20045;-72
2022/12/18 06:27:00;;;;;;;9.70;8.20;;;;;;;-10.58;84.31;101657.81;10402817;28;20054;-72
2022/12/18 06:32:02;;;;;;;11.68;8.38;;;;;;;-10.56;84.29;101656.25;10420472;28;20095;-71
2022/12/18 06:37:04;;;;;;;8.93;6.95;;;;;;;-10.47;83.34;101656.09;10402334;28;20069;-72
2022/12/18 06:42:06;;;;;;;11.07;7.82;;;;;;;-10.75;84.15;101658.13;10420416;28;20046;-72
2022/12/18 06:47:07;;;;;;;9.80;8.20;;;;;;;-10.76;84.38;101657.22;10420724;28;20037;-72
2022/12/18 06:52:09;;;;;;;10.57;8.18;;;;;;;-10.57;83.80;101666.31;10421840;28;20069;-73
2022/12/18 06:57:11;;;;;;;13.15;8.18;;;;;;;-10.72;83.91;101668.50;10420982;28;20494;-72
2022/12/18 07:02:13;;;;;;;13.20;8.63;;;;;;;-10.80;84.46;101685.72;10420352;28;20053;-72
2022/12/18 07:07:15;;;;;;;19.10;9.27;;;;;;;-10.64;84.04;101690.34;10403037;28;20048;-72
2022/12/18 07:12:17;;;;;;;12.50;8.88;;;;;;;-10.46;81.58;101684.16;10402817;28;20057;-72
2022/12/18 07:17:19;;;;;;;15.25;9.85;;;;;;;-10.85;83.13;101689.50;10419961;28;20061;-73
2022/12/18 07:22:21;;;;;;;13.20;9.68;;;;;;;-10.54;83.39;101684.31;10419624;28;20046;-72
2022/12/18 07:27:23;;;;;;;19.90;10.18;;;;;;;-10.57;82.24;101686.63;10401632;28;20045;-72
2022/12/18 07:32:25;;;;;;;17.25;11.27;;;;;;;-10.75;83.78;101704.75;10419961;28;20045;-72
2022/12/18 07:37:26;;;;;;;15.10;10.02;;;;;;;-10.61;84.46;101710.91;10403572;28;20038;-70
2022/12/18 07:42:31;;;;;;;12.73;10.77;;;;;;;-10.56;83.96;101703.66;10419831;28;20128;-71
2022/12/18 07:47:36;;;;;;;13.95;10.27;;;;;;;-10.54;84.45;101714.81;10405365;28;20037;-68
2022/12/18 07:52:38;;;;;;;13.57;9.65;;;;;;;-10.50;84.66;101725.34;10425861;28;20384;-68
2022/12/18 07:57:40;;;;;;;15.52;10.93;;;;;;;-10.42;85.02;101720.88;10425699;28;20037;-68
2022/12/18 08:02:52;;;;;;;19.02;12.10;;;;;;;-10.19;84.98;101722.63;10425272;28;20402;-69
2022/12/18 08:07:54;;;;;;;15.60;11.90;;;;;;;-10.06;85.18;101710.09;10424918;28;20045;-68
2022/12/18 08:12:56;;;;;;;20.38;14.00;;;;;;;-10.00;85.91;101702.09;10425307;28;20050;-69
2022/12/18 08:18:05;;;;;;;18.52;13.55;;;;;;;-9.80;85.97;101696.84;10431728;28;20112;-69
2022/12/18 08:23:15;;;;;;;21.60;14.70;;;;;;;-9.78;86.13;101690.22;10428691;28;20048;-67
2022/12/18 08:28:17;;;;;;;26.42;15.40;;;;;;;-9.78;86.06;101705.50;10439670;22;20414;-72
2022/12/18 08:33:19;;;;;;;25.27;16.80;;;;;;;-9.77;86.47;101703.84;10422531;28;20067;-74
2022/12/18 08:38:21;;;;;;;24.55;17.35;;;;;;;-9.60;86.77;101700.03;10420297;28;20056;-72
2022/12/18 08:48:43;;;;;;;22.30;16.55;;;;;;;-9.03;88.34;101703.47;10460248;28;20045;-72
2022/12/18 08:53:46;;;;;;;35.47;19.80;;;;;;;-8.75;89.60;101702.91;10425269;28;20053;-72
2022/12/18 08:58:50;;;;;;;29.80;18.60;;;;;;;-8.57;90.53;101713.56;10420339;28;20586;-73
2022/12/18 09:03:52;;;;;;;33.70;19.00;;;;;;;-8.25;92.13;101716.69;10419736;28;20491;-73
2022/12/18 09:08:54;;;;;;;31.58;18.75;;;;;;;-8.04;91.38;101696.88;10420139;28;20045;-73
2022/12/18 09:13:56;;;;;;;42.03;20.77;;;;;;;-7.66;89.54;101711.38;10459893;28;20506;-73
2022/12/18 09:18:59;;;;;;;33.78;19.75;;;;;;;-7.14;88.80;101730.22;10441515;28;20115;-73
2022/12/18 09:24:01;;;;;;;26.45;19.13;;;;;;;-6.93;86.49;101743.53;10441542;28;20076;-73
2022/12/18 09:29:04;;;;;;;32.47;20.67;;;;;;;-6.77;86.48;101741.19;10459207;28;20033;-73
2022/12/18 09:34:06;;;;;;;42.63;23.08;;;;;;;-6.88;86.42;101737.94;10459597;28;20056;-74
2022/12/18 09:39:07;;;;;;;38.72;22.90;;;;;;;-6.54;86.09;101737.56;10440971;28;20033;-73
2022/12/18 09:44:34;;;;;;;42.47;23.92;;;;;;;-6.42;85.97;101730.69;10459130;28;20048;-72
2022/12/18 09:49:51;;;;;;;38.03;22.08;;;;;;;-6.06;85.53;101732.88;10459021;28;20044;-72
2022/12/18 09:55:00;;;;;;;48.65;24.17;;;;;;;-5.75;85.96;101720.25;10460332;28;20140;-72
2022/12/18 10:00:14;;;;;;;38.15;22.02;;;;;;;-5.76;84.88;101714.22;10458159;28;20041;-73
2022/12/18 10:05:20;;;;;;;47.03;23.50;;;;;;;-5.50;83.94;101712.34;10457573;28;20053;-72
2022/12/18 10:10:46;;;;;;;49.40;24.23;;;;;;;-5.62;86.09;101695.47;10457300;28;20041;-73
2022/12/18 10:16:29;;;;;;;58.85;26.55;;;;;;;-5.46;86.21;101678.44;10457695;28;20080;-72
2022/12/18 10:21:51;;;;;;;57.50;26.30;;;;;;;-5.06;85.14;101673.94;10439570;28;20037;-73
2022/12/18 10:26:59;;;;;;;57.08;25.95;;;;;;;-4.83;84.88;101663.28;10439436;28;20489;-74
2022/12/18 10:32:01;;;;;;;55.45;24.48;;;;;;;-4.75;85.88;101656.03;10456670;28;20056;-73
2022/12/18 10:37:14;;;;;;;56.38;27.00;;;;;;;-4.73;85.40;101648.44;10438330;28;20457;-74
2022/12/18 10:42:19;;;;;;;61.90;27.83;;;;;;;-4.28;83.88;101632.09;10439155;28;20052;-73
2022/12/18 10:47:21;;;;;;;55.65;26.48;;;;;;;-4.19;82.17;101631.72;10437893;28;20552;-73
2022/12/18 10:52:25;;;;;;;52.53;26.92;;;;;;;-4.07;82.22;101629.81;10456071;28;20052;-73
2022/12/18 10:57:34;;;;;;;59.42;29.00;;;;;;;-3.97;82.79;101639.75;10437860;28;20041;-73
2022/12/18 11:02:37;;;;;;;53.15;27.08;;;;;;;-3.84;82.50;101636.13;10437975;28;20064;-73
2022/12/18 11:07:50;;;;;;;43.80;23.00;;;;;;;-3.00;76.52;101631.78;10455757;28;20041;-72
2022/12/18 11:12:52;;;;;;;41.60;21.83;;;;;;;-1.15;68.44;101624.59;10455836;28;20041;-73
2022/12/18 11:17:53;;;;;;;32.90;21.33;;;;;;;-0.57;64.53;101608.88;10455413;28;20094;-73
2022/12/18 11:23:01;;;;;;;43.08;23.88;;;;;;;0.58;60.66;101605.28;10461707;28;20063;-72
2022/12/18 11:28:35;;;;;;;34.38;20.98;;;;;;;0.67;59.36;101600.41;10463182;28;20049;-72
2022/12/18 11:33:41;;;;;;;45.22;24.15;;;;;;;1.05;57.74;101606.81;10445888;28;20107;-71
2022/12/18 11:39:15;;;;;;;47.23;25.03;;;;;;;-0.10;59.27;101605.44;10444849;28;20041;-73
2022/12/18 11:44:26;;;;;;;46.47;23.75;;;;;;;0.12;59.84;101603.66;10445869;28;20045;-74
2022/12/18 11:49:36;;;;;;;46.22;24.80;;;;;;;-0.52;61.17;101600.47;10446305;28;20040;-73
2022/12/18 11:54:37;;;;;;;39.67;23.27;;;;;;;-0.86;62.95;101605.13;10464033;28;20552;-72
2022/12/18 12:00:11;;;;;;;42.30;23.27;;;;;;;-1.48;65.23;101616.34;10462537;28;20041;-72
2022/12/18 12:05:30;;;;;;;45.08;24.17;;;;;;;-1.88;67.40;101607.78;10463142;28;20045;-71
2022/12/18 12:10:41;;;;;;;;;;;;;;;-1.58;68.81;101615.97;10463039;28;20045;-72
2022/12/18 12:16:28;;;;;;;46.70;24.55;;;;;;;-1.04;64.75;101618.19;10462749;28;19920;-72
2022/12/18 12:21:42;;;;;;;46.33;24.45;;;;;;;-1.17;64.33;101631.41;10295185;28;20055;-71
2022/12/18 12:27:02;;;;;;;40.40;22.67;;;;;;;-1.73;66.29;101633.31;10295720;28;20055;-71
2022/12/18 12:32:13;;;;;;;42.92;23.42;;;;;;;-2.06;67.88;101628.47;10294196;28;20058;-71
2022/12/18 12:37:38;;;;;;;45.20;21.80;;;;;;;-2.39;68.26;101647.53;10262160;28;20509;-72
2022/12/18 12:48:19;;;;;;;51.33;24.00;;;;;;;-3.06;72.28;101642.63;10294490;28;20129;-72
2022/12/18 12:53:29;;;;;;;46.92;23.73;;;;;;;-3.19;72.94;101624.81;10261624;28;20497;-72
2022/12/18 12:58:45;;;;;;;53.50;23.02;;;;;;;-3.21;73.06;101639.31;10394037;28;20414;-72
2022/12/18 13:04:28;;;;;;;46.17;22.50;;;;;;;-3.45;74.18;101632.16;10461171;28;20055;-72
2022/12/18 13:09:35;;;;;;;46.58;23.38;;;;;;;-3.38;73.44;101620.47;10460498;28;20052;-72
2022/12/18 13:14:40;;;;;;;51.65;23.30;;;;;;;-3.51;74.08;101615.50;10442324;28;20052;-73
2022/12/18 13:19:43;;;;;;;46.53;22.60;;;;;;;-3.51;74.31;101610.38;10459839;28;20537;-73
2022/12/18 13:24:45;;;;;;;44.83;22.35;;;;;;;-3.66;74.44;101628.50;10459963;28;20041;-73
2022/12/18 13:29:47;;;;;;;56.90;24.35;;;;;;;-3.46;74.54;101624.34;10441031;28;20498;-72
2022/12/18 13:35:08;;;;;;;48.90;23.00;;;;;;;-3.71;74.57;101625.69;10458610;28;20102;-72
2022/12/18 13:40:47;;;;;;;46.75;22.67;;;;;;;-3.99;75.70;101622.47;10440767;28;20041;-72
2022/12/18 13:46:24;;;;;;;50.75;22.50;;;;;;;-3.95;75.98;101611.56;10390403;28;20368;-72
2022/12/18 13:51:28;;;;;;;50.13;23.00;;;;;;;-3.65;75.52;101622.53;10457718;28;20041;-72
2022/12/18 13:56:33;;;;;;;47.78;24.05;;;;;;;-3.92;76.56;101614.28;10457797;28;20045;-72
2022/12/18 14:01:34;;;;;;;55.72;24.23;;;;;;;-3.95;76.92;101617.56;10440396;28;20055;-71
2022/12/18 14:06:37;;;;;;;47.20;23.92;;;;;;;-3.90;77.51;101617.81;10458481;28;20127;-71
2022/12/18 14:11:38;;;;;;;47.05;22.17;;;;;;;-4.25;78.46;101629.72;10457670;28;20048;-73
2022/12/18 14:16:41;;;;;;;49.28;23.02;;;;;;;-4.20;79.30;101619.69;10440648;28;20041;-72
2022/12/18 14:21:50;;;;;;;46.78;22.75;;;;;;;-4.23;79.96;101619.50;10439698;28;20059;-74
2022/12/18 14:26:52;;;;;;;46.05;22.73;;;;;;;-4.30;80.21;101608.00;10456661;28;20397;-72
2022/12/18 14:32:14;;;;;;;45.70;22.40;;;;;;;-4.37;81.22;101590.53;10439364;22;20037;-72
2022/12/18 14:37:24;;;;;;;46.97;21.95;;;;;;;-4.52;81.38;101590.56;10403735;28;20403;-72
2022/12/18 14:42:27;;;;;;;34.50;20.63;;;;;;;-4.61;81.65;101593.53;10421164;28;20048;-72
2022/12/18 14:47:30;;;;;;;46.08;22.73;;;;;;;-4.68;82.20;101588.00;10408767;28;20059;-72
2022/12/18 14:52:31;;;;;;;36.85;21.02;;;;;;;-4.83;82.55;101593.16;10456110;28;20072;-72
2022/12/18 14:57:37;;;;;;;35.20;20.52;;;;;;;-4.82;82.39;101597.50;10427701;28;20034;-72
2022/12/18 15:02:39;;;;;;;31.20;20.77;;;;;;;-4.85;82.38;101598.22;10409960;28;20051;-73
2022/12/18 15:07:44;;;;;;;38.47;20.88;;;;;;;-4.92;82.49;101593.53;10428197;28;20039;-72
2022/12/18 15:13:06;;;;;;;41.65;21.42;;;;;;;-5.02;83.75;101593.84;10426596;28;20494;-71
2022/12/18 15:18:08;;;;;;;33.60;21.52;;;;;;;-4.91;82.36;101597.88;10416614;28;20041;-71
2022/12/18 15:23:19;;;;;;;46.03;20.25;;;;;;;-4.84;82.31;101593.97;10467370;28;20049;-71
2022/12/18 15:28:28;;;;;;;33.60;20.60;;;;;;;-5.10;83.29;101583.13;10449857;28;20072;-73
2022/12/18 15:33:33;;;;;;;35.42;21.33;;;;;;;-5.19;83.48;101587.75;10468217;28;20430;-72
2022/12/18 15:38:35;;;;;;;39.15;20.08;;;;;;;-5.02;83.44;101570.75;10468602;28;20411;-72
2022/12/18 15:43:37;;;;;;;43.67;22.73;;;;;;;-5.16;83.21;101564.84;10450857;28;20052;-72
2022/12/18 15:48:42;;;;;;;44.75;21.42;;;;;;;-5.16;83.50;101581.94;10449434;28;20413;-72
2022/12/18 15:53:45;;;;;;;45.72;22.08;;;;;;;-5.29;83.78;101582.03;10448634;28;20052;-72
2022/12/18 15:58:47;;;;;;;38.85;20.52;;;;;;;-5.12;82.48;101577.06;10408658;28;20041;-73
2022/12/18 16:03:48;;;;;;;44.22;22.05;;;;;;;-5.12;83.30;101564.25;10409516;28;20046;-72
2022/12/18 16:08:50;;;;;;;93.03;38.42;;;;;;;-5.34;83.63;101563.81;10406047;28;20053;-71
2022/12/18 16:13:52;;;;;;;52.10;23.98;;;;;;;-5.52;84.89;101560.22;10424623;28;20099;-72
2022/12/18 16:18:54;;;;;;;48.85;22.65;;;;;;;-5.57;85.65;101554.84;10406235;28;20072;-72
2022/12/18 16:23:56;;;;;;;50.00;23.80;;;;;;;-5.34;85.98;101562.16;10426474;28;20124;-71
2022/12/18 16:28:57;;;;;;;48.22;23.00;;;;;;;-5.40;84.99;101561.81;10424993;28;20491;-71
2022/12/18 16:34:23;;;;;;;46.55;22.52;;;;;;;-5.34;85.42;101556.13;10406472;28;20093;-73
2022/12/18 16:39:30;;;;;;;43.90;21.63;;;;;;;-5.34;84.36;101562.16;10422651;28;20030;-72
2022/12/18 16:44:35;;;;;;;46.63;23.05;;;;;;;-5.50;85.43;101553.50;10412617;28;20502;-72
2022/12/18 16:49:38;;;;;;;47.78;22.92;;;;;;;-5.36;85.98;101547.47;10423477;28;20045;-70
2022/12/18 16:54:40;;;;;;;52.85;22.58;;;;;;;-5.21;84.92;101552.59;10429487;28;20592;-71
2022/12/18 16:59:42;;;;;;;57.95;21.90;;;;;;;-5.47;85.01;101546.88;10422846;28;20095;-71
2022/12/18 17:04:45;;;;;;;48.75;23.95;;;;;;;-5.27;85.54;101547.09;10425848;28;20041;-71
2022/12/18 17:09:49;;;;;;;38.40;22.17;;;;;;;-5.23;85.03;101539.66;10422274;28;20553;-71
2022/12/18 17:14:51;;;;;;;46.35;22.38;;;;;;;-5.15;84.60;101537.53;10422411;28;20041;-71
2022/12/18 17:19:53;;;;;;;44.25;24.13;;;;;;;-5.34;85.84;101527.94;10403194;28;20067;-70
2022/12/18 17:24:57;;;;;;;49.75;23.63;;;;;;;-5.43;86.89;101530.88;10421231;28;20087;-72
2022/12/18 17:29:59;;;;;;;45.17;22.33;;;;;;;-5.33;86.08;101532.28;10421720;28;20572;-71
2022/12/18 17:35:01;;;;;;;48.13;22.88;;;;;;;-5.42;85.75;101521.50;10422481;28;20491;-71
2022/12/18 17:40:09;;;;;;;46.40;22.85;;;;;;;-5.55;87.44;101526.72;10421082;28;20392;-71
2022/12/18 17:45:11;;;;;;;42.05;22.75;;;;;;;-5.17;86.14;101529.78;10420808;28;20498;-71
2022/12/18 17:50:13;;;;;;;39.22;22.40;;;;;;;-5.39;87.04;101512.31;10405046;28;20041;-71
2022/12/18 17:55:15;;;;;;;40.72;21.73;;;;;;;-5.24;86.15;101504.59;10445318;28;20037;-72
2022/12/18 18:00:17;;;;;;;44.92;21.42;;;;;;;-5.11;86.04;101504.47;10460047;28;20048;-72
2022/12/18 18:05:19;;;;;;;42.13;22.60;;;;;;;-5.20;85.84;101509.09;10460613;28;20048;-71
2022/12/18 18:10:22;;;;;;;48.00;24.20;;;;;;;-5.48;87.50;101504.13;10445401;28;20059;-72
2022/12/18 18:15:24;;;;;;;44.92;23.08;;;;;;;-5.34;86.95;101500.63;10460759;28;20120;-71
2022/12/18 18:20:29;;;;;;;38.88;21.70;;;;;;;-5.32;87.75;101495.59;10460377;28;20521;-72
2022/12/18 18:25:36;;;;;;;49.38;23.40;;;;;;;-5.54;88.90;101490.94;10442947;28;20056;-72
2022/12/18 18:30:38;;;;;;;52.95;23.27;;;;;;;-5.10;87.58;101490.84;10444856;28;20414;-71
2022/12/18 18:35:42;;;;;;;37.00;21.13;;;;;;;-5.03;87.15;101479.25;10460719;28;20048;-72
2022/12/18 18:41:01;;;;;;;37.65;21.15;;;;;;;-4.96;86.94;101477.88;10443221;28;20041;-71
2022/12/18 18:46:04;;;;;;;42.80;20.55;;;;;;;-5.12;87.24;101471.94;10442484;28;20422;-71
2022/12/18 18:51:10;;;;;;;30.70;19.13;;;;;;;-4.93;86.18;101460.09;10428326;28;20103;-71
2022/12/18 18:56:15;;;;;;;36.73;18.57;;;;;;;-4.85;85.82;101471.66;10416648;28;20045;-71
2022/12/18 19:01:37;;;;;;;30.85;18.48;;;;;;;-5.03;86.30;101445.03;10416691;28;20048;-72
2022/12/18 19:06:39;;;;;;;31.88;17.38;;;;;;;-4.85;85.64;101439.19;10417452;28;20065;-71
2022/12/18 19:17:03;;;;;;;30.13;18.48;;;;;;;-4.79;84.57;101428.34;10440748;28;20080;-72
2022/12/18 19:22:06;;;;;;;35.35;18.58;;;;;;;-4.75;84.49;101417.47;10418634;28;20411;-72
2022/12/18 19:27:08;;;;;;;31.52;18.63;;;;;;;-4.56;83.76;101414.16;10417674;28;20069;-73
2022/12/18 19:32:10;;;;;;;27.38;16.98;;;;;;;-4.98;84.78;101400.00;10459140;28;20044;-72
2022/12/18 19:37:12;;;;;;;36.13;19.23;;;;;;;-4.94;85.96;101400.25;10461496;28;20506;-71
2022/12/18 19:42:14;;;;;;;41.45;19.95;;;;;;;-4.78;84.40;101375.38;10461606;28;20040;-71
2022/12/18 19:47:24;;;;;;;32.58;19.15;;;;;;;-4.68;83.78;101369.94;10432982;28;20063;-71
2022/12/18 19:52:26;;;;;;;35.67;18.30;;;;;;;-4.69;83.87;101386.09;10436792;28;20053;-71
2022/12/18 19:57:28;;;;;;;37.08;18.92;;;;;;;-4.65;83.78;101368.41;10430229;28;20041;-72
2022/12/18 20:02:30;;;;;;;42.50;19.10;;;;;;;-4.70;83.86;101362.13;10459515;28;20470;-71
2022/12/18 20:07:32;;;;;;;32.22;20.05;;;;;;;-4.54;83.07;101358.66;10410278;28;20096;-71
2022/12/18 20:12:34;;;;;;;41.90;18.90;;;;;;;-4.60;82.95;101363.50;10427502;28;20042;-72
2022/12/18 20:17:38;;;;;;;37.88;19.10;;;;;;;-4.69;83.02;101361.34;10430125;28;20068;-72
2022/12/18 20:22:41;;;;;;;33.28;17.75;;;;;;;-4.48;82.12;101370.91;10407329;28;20042;-71
2022/12/18 20:27:45;;;;;;;40.22;18.95;;;;;;;-4.49;83.07;101382.00;10408366;28;20046;-71
2022/12/18 20:32:47;;;;;;;42.08;20.23;;;;;;;-4.63;82.74;101361.66;10438302;22;20069;-73
2022/12/18 20:37:49;;;;;;;35.50;18.23;;;;;;;-4.54;82.17;101362.94;10405325;28;20053;-72
2022/12/18 20:42:52;;;;;;;34.53;19.55;;;;;;;-4.63;82.79;101361.66;10404387;28;20064;-72
2022/12/18 20:47:58;;;;;;;33.00;18.67;;;;;;;-4.62;83.19;101330.06;10421702;28;20046;-73
2022/12/18 20:52:59;;;;;;;34.00;20.38;;;;;;;-4.45;82.04;101328.31;10422583;28;20049;-72
2022/12/18 20:58:01;;;;;;;34.38;19.48;;;;;;;-4.49;82.39;101333.25;10430385;28;20592;-72
2022/12/18 21:03:03;;;;;;;31.63;18.23;;;;;;;-4.37;81.08;101324.47;10445377;28;20100;-72
2022/12/18 21:08:05;;;;;;;41.00;20.00;;;;;;;-4.52;81.68;101328.81;10434204;28;20433;-72
2022/12/18 21:13:07;;;;;;;38.75;19.23;;;;;;;-4.39;81.66;101327.75;10404749;28;20387;-71
2022/12/18 21:18:10;;;;;;;39.30;19.35;;;;;;;-4.32;80.78;101324.69;10421520;28;20117;-72
2022/12/18 21:23:12;;;;;;;27.00;17.90;;;;;;;-4.40;81.10;101324.28;10421969;28;20095;-72
2022/12/18 21:28:17;;;;;;;36.55;19.35;;;;;;;-4.25;80.07;101313.00;10404447;28;20045;-72
2022/12/18 21:33:19;;;;;;;31.85;17.42;;;;;;;-4.18;79.31;101317.66;10421014;28;20604;-72
2022/12/18 21:38:20;;;;;;;29.60;17.92;;;;;;;-4.12;78.56;101323.06;10422452;28;20083;-73
2022/12/18 21:48:43;;;;;;;31.67;19.95;;;;;;;-4.15;78.69;101317.81;10402487;28;20438;-72
2022/12/18 21:53:44;;;;;;;33.90;19.00;;;;;;;-4.33;79.66;101320.38;10419134;28;20120;-72
2022/12/18 21:58:50;;;;;;;41.95;20.42;;;;;;;-4.20;79.17;101314.13;10419843;28;20069;-73
2022/12/18 22:03:58;;;;;;;39.33;20.00;;;;;;;-4.17;78.69;101301.41;10418232;28;20469;-73
2022/12/18 22:09:00;;;;;;;39.35;21.27;;;;;;;-4.13;79.22;101300.75;10401939;28;20046;-73
2022/12/18 22:14:02;;;;;;;46.92;22.80;;;;;;;-4.12;78.16;101306.00;10420745;28;20088;-73
2022/12/18 22:19:04;;;;;;;41.88;20.45;;;;;;;-4.22;79.01;101301.19;10420037;28;20034;-73
2022/12/18 22:24:23;;;;;;;48.88;22.75;;;;;;;-4.21;79.00;101294.38;10418480;28;20057;-72
2022/12/18 22:34:46;;;;;;;50.17;24.02;;;;;;;-4.25;79.53;101277.06;10420157;28;20049;-72
2022/12/18 22:39:47;;;;;;;50.70;23.40;;;;;;;-4.33;80.30;101269.03;10402605;28;20050;-73
2022/12/18 22:44:49;;;;;;;44.38;23.25;;;;;;;-4.23;79.63;101266.06;10403220;28;20046;-71
2022/12/18 22:49:51;;;;;;;48.50;25.65;;;;;;;-4.22;80.03;101265.25;10401698;28;20049;-72
2022/12/18 22:54:53;;;;;;;40.00;22.30;;;;;;;-4.25;80.24;101246.25;10418007;28;20041;-73
2022/12/18 22:59:55;;;;;;;60.55;24.92;;;;;;;-4.31;79.98;101239.16;10415987;28;20092;-72
2022/12/18 23:04:56;;;;;;;45.55;24.63;;;;;;;-4.18;79.31;101233.78;10417866;28;20132;-73
2022/12/18 23:09:58;;;;;;;40.97;23.23;;;;;;;-4.16;78.66;101231.28;10400494;28;20033;-72
2022/12/18 23:15:03;;;;;;;46.78;24.48;;;;;;;-4.18;78.12;101233.78;10417386;28;20582;-71
2022/12/18 23:20:05;;;;;;;47.15;25.48;;;;;;;-4.28;78.42;101205.94;10425356;28;20121;-72
2022/12/18 23:25:09;;;;;;;54.20;24.98;;;;;;;-4.34;77.81;101197.94;10424956;28;20046;-72